Bullange, Belgium
Current Conditions -  °F | °C
As of 8:25 PM on Sunday 21 Dec 2014 (Local Time) from EBLB Reporting Station
Broken Clouds Broken Clouds  
Wind Chill: 31°   Ceiling: 400
Heat Index: 39°   Visibility: 2.8mi
Dew Point: 37°   Wind: 14mph
Humidity: 93%   Direction: 240°WSW
Pressure: 30.3"   Gusts: NA
Location:  50.41°N, 6.26°E
Report Text: EBLB 211925Z AUTO 24012KT 4500 FEW002/// BKN004/// BKN006/// 04/03 Q1026 YLO
Loading
Personal Weather Stations






























Interactive Weather Map New forecast layout! Learn more

10-Day Weather Forecast

Advertisements
Track Severe Weather on mobile